Peleus — V2FV2 — position and weather

sailwx.info

Track history (hours):
 
Tides and Currents Weather Stations Pressure Air Temp Water Temp Dewpoint Dewpoint Depression Visibility Wind Speed Wind Dir Waves Ship Positions

Peleus

Last reported at 2014-Nov-24 20:32 UTC. Time now 2014-Nov-29 07:25 UTC.
Position N 43°22' W 003°07'.

Length 88 m; draft 3.4 m.

Type: Ship. MMSI: 305810000.

Date/timePositionNaut miles runAvg speedWind from/ knotsBaromVisibWave heightAir tempDewpointWater temp
2014-Nov-24 20:32N 43°22' W 003°07'0 0.0
2014-Nov-24 19:32N 43°22' W 003°07'0 0.0
2014-Nov-22 21:32N 43°22' W 003°07'6 0.2
2014-Nov-21 16:31N 43°19' W 002°60'0 0.0
2014-Nov-21 15:31N 43°19' W 002°60'0 0.0
2014-Nov-21 14:31N 43°19' W 002°60'0 0.0
2014-Nov-21 13:31N 43°19' W 002°60'0 0.0
2014-Nov-21 12:31N 43°19' W 002°60'0 0.0
2014-Nov-21 11:31N 43°19' W 002°60'0 0.0
2014-Nov-21 10:31N 43°19' W 002°60'0 0.0
2014-Nov-21 09:31N 43°19' W 002°60'0 0.0
2014-Nov-21 08:31N 43°19' W 002°60'0 0.0
2014-Nov-21 07:32N 43°19' W 002°60'0 0.0
2014-Nov-21 06:32N 43°19' W 002°60'0 0.0
2014-Nov-21 05:32N 43°19' W 002°60'0 0.0
2014-Nov-21 04:32N 43°19' W 002°60'0 0.0
2014-Nov-21 03:32N 43°19' W 002°60'0 0.0
2014-Nov-21 02:32N 43°19' W 002°60'0 0.0
2014-Nov-21 01:23N 43°19' W 002°60'0 0.0
2014-Nov-21 00:11N 43°19' W 002°60'0 0.0
2014-Nov-20 23:32N 43°19' W 002°60'0 0.0
2014-Nov-20 22:32N 43°19' W 002°60'0 0.0
2014-Nov-20 21:32N 43°19' W 002°60'0 0.0
2014-Nov-20 20:32N 43°19' W 002°60'0 0.0
2014-Nov-20 19:32N 43°19' W 002°60'0 0.0
2014-Nov-20 18:32N 43°19' W 002°60'  
2014-Nov-15 11:13N 50°30' E 000°00'5 8.0
2014-Nov-15 10:33N 50°32' E 000°08'8 8.3
2014-Nov-15 09:33N 50°34' E 000°21'8 8.4
2014-Nov-15 08:33N 50°36' E 000°34'8 8.4
2014-Nov-15 07:33N 50°41' E 000°45'8 8.3
2014-Nov-15 06:33N 50°46' E 000°55'7 7.4
2014-Nov-15 05:33N 50°51' E 001°04'7 7.2
2014-Nov-15 04:32N 50°56' E 001°13'7 7.2
2014-Nov-15 03:33N 51°00' E 001°21'8 7.8
2014-Nov-15 02:33N 51°06' E 001°30'9 8.7
2014-Nov-15 01:34N 51°11' E 001°41'9 9.1
2014-Nov-15 00:33N 51°19' E 001°50'9 9.0
2014-Nov-14 23:33N 51°26' E 001°57'8 8.5
2014-Nov-14 22:33N 51°33' E 002°05'  
Track history (hours):
 
Tides and Currents Weather Stations Pressure Air Temp Water Temp Dewpoint Dewpoint Depression Visibility Wind Speed Wind Dir Waves Ship Positions

Peleus

Last reported at 2014-Nov-24 20:32 UTC. Time now 2014-Nov-29 07:25 UTC.
Position N 43°22' W 003°07'.

Length 88 m; draft 3.4 m.

Type: Ship. MMSI: 305810000.

Date/timePositionNaut miles runAvg speedWind from/ knotsBaromVisibWave heightAir tempDewpointWater temp
2014-Nov-24 20:32N 43°22' W 003°07'0 0.0
2014-Nov-24 19:32N 43°22' W 003°07'0 0.0
2014-Nov-22 21:32N 43°22' W 003°07'6 0.2
2014-Nov-21 16:31N 43°19' W 002°60'0 0.0
2014-Nov-21 15:31N 43°19' W 002°60'0 0.0
2014-Nov-21 14:31N 43°19' W 002°60'0 0.0
2014-Nov-21 13:31N 43°19' W 002°60'0 0.0
2014-Nov-21 12:31N 43°19' W 002°60'0 0.0
2014-Nov-21 11:31N 43°19' W 002°60'0 0.0
2014-Nov-21 10:31N 43°19' W 002°60'0 0.0
2014-Nov-21 09:31N 43°19' W 002°60'0 0.0
2014-Nov-21 08:31N 43°19' W 002°60'0 0.0
2014-Nov-21 07:32N 43°19' W 002°60'0 0.0
2014-Nov-21 06:32N 43°19' W 002°60'0 0.0
2014-Nov-21 05:32N 43°19' W 002°60'0 0.0
2014-Nov-21 04:32N 43°19' W 002°60'0 0.0
2014-Nov-21 03:32N 43°19' W 002°60'0 0.0
2014-Nov-21 02:32N 43°19' W 002°60'0 0.0
2014-Nov-21 01:23N 43°19' W 002°60'0 0.0
2014-Nov-21 00:11N 43°19' W 002°60'0 0.0
2014-Nov-20 23:32N 43°19' W 002°60'0 0.0
2014-Nov-20 22:32N 43°19' W 002°60'0 0.0
2014-Nov-20 21:32N 43°19' W 002°60'0 0.0
2014-Nov-20 20:32N 43°19' W 002°60'0 0.0
2014-Nov-20 19:32N 43°19' W 002°60'0 0.0
2014-Nov-20 18:32N 43°19' W 002°60'  
2014-Nov-15 11:13N 50°30' E 000°00'5 8.0
2014-Nov-15 10:33N 50°32' E 000°08'8 8.3
2014-Nov-15 09:33N 50°34' E 000°21'8 8.4
2014-Nov-15 08:33N 50°36' E 000°34'8 8.4
2014-Nov-15 07:33N 50°41' E 000°45'8 8.3
2014-Nov-15 06:33N 50°46' E 000°55'7 7.4
2014-Nov-15 05:33N 50°51' E 001°04'7 7.2
2014-Nov-15 04:32N 50°56' E 001°13'7 7.2
2014-Nov-15 03:33N 51°00' E 001°21'8 7.8
2014-Nov-15 02:33N 51°06' E 001°30'9 8.7
2014-Nov-15 01:34N 51°11' E 001°41'9 9.1
2014-Nov-15 00:33N 51°19' E 001°50'9 9.0
2014-Nov-14 23:33N 51°26' E 001°57'8 8.5
2014-Nov-14 22:33N 51°33' E 002°05'  

Dump ship's entire track history